ブリスベン の空港の天気 - METARとTAF

ブリスベン空港 ( YBBN / BNE ) - オーストラリア クイーンズランド州ブリスベン
飛行場実況気象(Metar)
観測時間02/18 00:30 AEST (02/17 14:30 UTC)
風向・風速南南西 2m/s
視程10km以上
天気現象
少しの雲 雲底高度 760m
気温23℃
湿度73%
気圧1012hPa
METARYBBN 171430Z 20004KT 9999 FEW025 23/18 Q1012 NOSIG
過去の天気等 Google飛行場航空写真 Wunderground天気予報

過去48時間のMETAR

飛行場予報(TAF)
発表時間: 2/17 21:16 AEST (2/17 11:16 UTC)
予報対象時間: 17日22時 AEST ~ 19日4時 AEST
風向・風速南 4m/s
視程10km以上
全天の4割程度の雲 雲底高度 910m
18日9時 AEST から
風向・風速南東 5m/s
視程10km以上
少しの雲 雲底高度 1220m
18日11時 AEST から
風向・風速東 6m/s
視程10km以上
少しの雲 雲底高度 1370m
18日19時 AEST から
風向・風速東 4m/s
視程10km以上
少しの雲 雲底高度 760m
19日1時 AEST から
風向・風速南 3m/s
視程10km以上
全天の4割程度の雲 雲底高度 760m
TAF YBBN 171116Z 1712/1818 19007KT 9999 SCT030
FM172300 13010KT 9999 FEW040
FM180100 10012KT 9999 FEW045
FM180900 10008KT 9999 FEW025
FM181500 19005KT 9999 SCT025